createdAt,value
2023-03-05T00:01:14.533Z,8.48
2023-03-05T00:03:41.649Z,8.98
2023-03-05T00:06:09.060Z,7.93
2023-03-05T00:08:36.266Z,8.55
2023-03-05T00:11:07.185Z,8.65
2023-03-05T00:13:34.484Z,7.72
2023-03-05T00:16:06.572Z,8.75
2023-03-05T00:18:34.202Z,8.52
2023-03-05T00:21:01.154Z,8.77
2023-03-05T00:23:28.444Z,7.70
2023-03-05T00:25:55.272Z,7.47
2023-03-05T00:28:22.316Z,8.43
2023-03-05T00:30:49.187Z,7.40
2023-03-05T00:33:16.113Z,7.57
2023-03-05T00:35:45.434Z,7.63
2023-03-05T00:38:13.562Z,8.43
2023-03-05T00:40:41.728Z,6.97
2023-03-05T00:43:09.788Z,8.43
2023-03-05T00:45:36.974Z,8.32
2023-03-05T00:48:04.789Z,7.97
2023-03-05T00:50:31.635Z,8.88
2023-03-05T00:52:58.631Z,8.90
2023-03-05T00:55:25.654Z,8.35
2023-03-05T00:57:52.598Z,8.52
2023-03-05T01:00:19.609Z,7.63
2023-03-05T01:02:46.355Z,8.23
2023-03-05T01:05:14.574Z,8.30
2023-03-05T01:07:41.752Z,8.35
2023-03-05T01:10:09.876Z,8.38
2023-03-05T01:12:37.448Z,7.60
2023-03-05T01:15:05.255Z,8.18
2023-03-05T01:17:32.599Z,8.90
2023-03-05T01:19:59.400Z,8.48
2023-03-05T01:22:26.275Z,7.88
2023-03-05T01:24:53.114Z,7.38
2023-03-05T01:27:20.143Z,8.50
2023-03-05T01:29:46.930Z,8.05
2023-03-05T01:32:13.848Z,9.27
2023-03-05T01:34:41.955Z,7.95
2023-03-05T01:37:09.800Z,7.70
2023-03-05T01:39:36.627Z,8.90
2023-03-05T01:42:05.901Z,7.30
2023-03-05T01:44:33.384Z,8.57
2023-03-05T01:47:00.335Z,8.30
2023-03-05T01:49:39.918Z,8.25
2023-03-05T01:52:11.995Z,7.38
2023-03-05T01:54:43.364Z,7.85
2023-03-05T01:57:18.033Z,7.43
2023-03-05T01:59:48.568Z,7.93
2023-03-05T02:02:16.477Z,7.72
2023-03-05T02:04:48.522Z,7.65
2023-03-05T02:07:16.934Z,8.10
2023-03-05T02:09:43.860Z,7.63
2023-03-05T02:12:12.509Z,8.00
2023-03-05T02:14:41.767Z,8.35
2023-03-05T02:17:10.846Z,7.13
2023-03-05T02:20:05.490Z,8.63
2023-03-05T02:22:32.413Z,7.20
2023-03-05T02:24:59.811Z,8.00
2023-03-05T02:27:35.243Z,7.22
2023-03-05T02:30:03.491Z,7.53
2023-03-05T02:32:30.650Z,8.45
2023-03-05T02:34:57.518Z,7.07
2023-03-05T02:37:24.412Z,8.23
2023-03-05T02:39:51.842Z,6.88
2023-03-05T02:42:18.697Z,7.30
2023-03-05T02:44:45.705Z,8.40
2023-03-05T02:47:12.507Z,7.80
2023-03-05T02:49:39.989Z,7.25
2023-03-05T02:52:07.024Z,7.40
2023-03-05T02:54:33.811Z,7.72
2023-03-05T02:57:03.107Z,7.97
2023-03-05T02:59:30.127Z,7.75
2023-03-05T03:01:57.045Z,8.05
2023-03-05T03:04:23.934Z,8.02
2023-03-05T03:06:50.836Z,8.40
2023-03-05T03:09:17.661Z,7.78
2023-03-05T03:11:44.663Z,8.23
2023-03-05T03:14:11.470Z,8.07
2023-03-05T03:16:38.322Z,8.05
2023-03-05T03:19:05.630Z,8.60
2023-03-05T03:21:32.495Z,9.13
2023-03-05T03:23:59.547Z,8.80
2023-03-05T03:26:26.649Z,8.38
2023-03-05T03:28:54.479Z,8.60
2023-03-05T03:31:21.532Z,8.25
2023-03-05T03:33:48.460Z,8.13
2023-03-05T03:36:15.296Z,9.40
2023-03-05T03:38:42.502Z,7.95
2023-03-05T03:41:09.719Z,7.60
2023-03-05T03:43:37.157Z,8.05
2023-03-05T03:46:06.664Z,8.52
2023-03-05T03:48:33.979Z,8.80
2023-03-05T03:51:04.934Z,8.57
2023-03-05T03:53:31.738Z,8.77
2023-03-05T03:55:59.504Z,8.02
2023-03-05T03:58:26.804Z,9.38
2023-03-05T04:00:53.575Z,7.68
2023-03-05T04:03:20.378Z,8.13
2023-03-05T04:05:47.161Z,7.85
2023-03-05T04:08:13.932Z,7.28
2023-03-05T04:10:41.132Z,7.72
2023-03-05T04:13:08.534Z,8.57
2023-03-05T04:15:35.922Z,8.50
2023-03-05T04:18:02.887Z,8.00
2023-03-05T04:20:29.736Z,7.15
2023-03-05T04:22:56.629Z,8.40
2023-03-05T04:25:23.446Z,7.82
2023-03-05T04:27:51.113Z,7.95
2023-03-05T04:30:18.173Z,6.75
2023-03-05T04:32:45.002Z,8.57
2023-03-05T04:35:11.922Z,7.32
2023-03-05T04:37:38.783Z,7.00
2023-03-05T04:40:06.156Z,7.75
2023-03-05T04:42:33.060Z,6.30
2023-03-05T04:44:59.819Z,7.03
2023-03-05T04:47:26.643Z,6.63
2023-03-05T04:49:53.547Z,7.13
2023-03-05T04:52:20.374Z,6.70
2023-03-05T04:54:47.199Z,7.10
2023-03-05T04:57:14.080Z,6.32
2023-03-05T04:59:40.920Z,6.78
2023-03-05T05:02:07.782Z,7.40
2023-03-05T05:04:36.107Z,7.07
2023-03-05T05:07:03.479Z,6.78
2023-03-05T05:09:30.639Z,6.78
2023-03-05T05:11:57.397Z,6.18
2023-03-05T05:14:24.213Z,7.03
2023-03-05T05:16:50.999Z,6.75
2023-03-05T05:19:18.310Z,6.93
2023-03-05T05:21:46.838Z,7.03
2023-03-05T05:24:13.608Z,7.72
2023-03-05T05:26:40.485Z,7.38
2023-03-05T05:29:07.414Z,7.82
2023-03-05T05:31:34.287Z,8.48
2023-03-05T05:34:01.202Z,8.13
2023-03-05T05:36:28.068Z,7.70
2023-03-05T05:38:54.891Z,8.98
2023-03-05T05:41:21.996Z,8.07
2023-03-05T05:43:49.220Z,8.35
2023-03-05T05:46:18.614Z,8.10
2023-03-05T05:48:45.878Z,8.02
2023-03-05T05:51:18.462Z,8.60
2023-03-05T05:53:45.855Z,9.25
2023-03-05T05:56:14.699Z,8.45
2023-03-05T05:58:42.425Z,8.48
2023-03-05T06:01:15.408Z,8.85
2023-03-05T06:03:42.258Z,9.07
2023-03-05T06:06:14.550Z,8.57
2023-03-05T06:08:41.872Z,8.80
2023-03-05T06:11:08.928Z,7.68
2023-03-05T06:13:36.160Z,8.48
2023-03-05T06:16:06.063Z,8.52
2023-03-05T06:18:34.955Z,8.45
2023-03-05T06:21:04.621Z,7.75
2023-03-05T06:23:31.593Z,8.38
2023-03-05T06:26:04.617Z,9.10
2023-03-05T06:28:32.046Z,11.13
2023-03-05T06:31:07.001Z,10.63
2023-03-05T06:33:34.315Z,9.35
2023-03-05T06:36:04.437Z,10.27
2023-03-05T06:38:31.498Z,9.07
2023-03-05T06:41:02.126Z,8.85
2023-03-05T06:43:28.896Z,9.45
2023-03-05T06:46:08.826Z,9.77
2023-03-05T06:48:35.700Z,8.30
2023-03-05T06:51:02.595Z,8.43
2023-03-05T06:53:29.435Z,9.48
2023-03-05T06:55:56.330Z,9.15
2023-03-05T06:58:23.827Z,9.63
2023-03-05T07:00:50.752Z,7.88
2023-03-05T07:03:17.573Z,8.32
2023-03-05T07:05:44.713Z,8.35
2023-03-05T07:08:11.571Z,8.18
2023-03-05T07:10:43.509Z,9.80
2023-03-05T07:13:10.721Z,8.45
2023-03-05T07:15:41.478Z,8.40
2023-03-05T07:18:08.553Z,9.93
2023-03-05T07:20:36.923Z,9.05
2023-03-05T07:23:04.724Z,8.40
2023-03-05T07:25:32.605Z,8.27
2023-03-05T07:28:00.319Z,9.23
2023-03-05T07:30:27.411Z,9.85
2023-03-05T07:32:54.220Z,8.95
2023-03-05T07:35:21.113Z,8.98
2023-03-05T07:37:48.072Z,9.63
2023-03-05T07:40:14.989Z,8.90
2023-03-05T07:42:41.832Z,9.73
2023-03-05T07:45:21.511Z,8.77
2023-03-05T07:47:48.394Z,9.20
2023-03-05T07:50:17.191Z,9.15
2023-03-05T07:52:44.564Z,8.77
2023-03-05T07:55:12.650Z,8.75
2023-03-05T07:57:42.904Z,9.70
2023-03-05T08:00:11.057Z,8.55
2023-03-05T08:02:42.340Z,8.70
2023-03-05T08:05:09.363Z,9.15
2023-03-05T08:07:36.217Z,8.23
2023-03-05T08:10:04.492Z,8.93
2023-03-05T08:12:31.730Z,7.47
2023-03-05T08:14:58.606Z,8.40
2023-03-05T08:17:25.450Z,8.23
2023-03-05T08:19:53.801Z,7.18
2023-03-05T08:22:20.608Z,7.53
2023-03-05T08:24:47.478Z,7.50
2023-03-05T08:27:14.377Z,7.25
2023-03-05T08:29:41.170Z,7.03
2023-03-05T08:32:09.401Z,7.07
2023-03-05T08:34:36.557Z,7.40
2023-03-05T08:37:03.371Z,7.47
2023-03-05T08:39:30.257Z,7.05
2023-03-05T08:41:57.511Z,6.63
2023-03-05T08:44:24.240Z,6.60
2023-03-05T08:46:51.090Z,6.13
2023-03-05T08:49:17.918Z,5.57
2023-03-05T08:51:44.797Z,5.72
2023-03-05T08:54:11.699Z,6.03
2023-03-05T08:56:39.328Z,6.13
2023-03-05T08:59:06.603Z,6.68
2023-03-05T09:01:33.600Z,5.05
2023-03-05T09:04:01.175Z,5.50
2023-03-05T09:06:28.514Z,6.47
2023-03-05T09:08:55.600Z,6.07
2023-03-05T09:11:22.551Z,4.28
2023-03-05T09:13:49.562Z,5.20
2023-03-05T09:16:18.657Z,4.88
2023-03-05T09:18:46.117Z,5.22
2023-03-05T09:21:15.819Z,5.32
2023-03-05T09:23:44.229Z,5.50
2023-03-05T09:26:13.113Z,4.75
2023-03-05T09:28:40.785Z,4.93
2023-03-05T09:31:08.884Z,4.05
2023-03-05T09:33:36.789Z,4.55
2023-03-05T09:36:06.140Z,4.85
2023-03-05T09:38:33.012Z,4.93
2023-03-05T09:41:14.268Z,4.07
2023-03-05T09:43:55.420Z,3.78
2023-03-05T09:46:25.028Z,3.80
2023-03-05T09:48:56.407Z,4.38
2023-03-05T09:51:27.907Z,4.70
2023-03-05T09:53:59.106Z,3.58
2023-03-05T09:56:34.833Z,3.72
2023-03-05T09:59:17.669Z,4.07
2023-03-05T10:01:45.303Z,4.32
2023-03-05T10:04:18.022Z,3.50
2023-03-05T10:06:48.944Z,4.28
2023-03-05T10:09:45.805Z,4.00
2023-03-05T10:12:27.671Z,3.88
2023-03-05T10:14:55.291Z,3.28
2023-03-05T10:17:37.086Z,3.60
2023-03-05T10:20:04.481Z,4.63
2023-03-05T10:22:41.024Z,3.58
2023-03-05T10:25:29.256Z,3.85
2023-03-05T10:28:06.003Z,3.80
2023-03-05T10:30:59.171Z,3.88
2023-03-05T10:33:49.261Z,3.88
2023-03-05T10:36:45.022Z,3.55
2023-03-05T10:39:40.835Z,3.67
2023-03-05T10:42:31.211Z,3.75
2023-03-05T10:45:00.809Z,3.35
2023-03-05T10:47:49.977Z,4.05
2023-03-05T10:50:29.379Z,3.22
2023-03-05T10:53:14.458Z,3.60
2023-03-05T10:55:42.027Z,3.10
2023-03-05T10:58:16.710Z,3.67
2023-03-05T11:01:04.412Z,3.00
2023-03-05T11:03:50.996Z,3.20
2023-03-05T11:09:24.825Z,3.45
2023-03-05T11:12:06.841Z,3.78
2023-03-05T11:14:35.553Z,3.72
2023-03-05T11:17:22.524Z,3.50
2023-03-05T11:19:49.330Z,2.67
2023-03-05T11:22:20.651Z,2.80
2023-03-05T11:25:19.135Z,3.17
2023-03-05T11:27:54.315Z,3.22
2023-03-05T11:30:30.210Z,2.95
2023-03-05T11:33:17.574Z,3.00
2023-03-05T11:35:45.587Z,3.15
2023-03-05T11:38:19.801Z,3.22
2023-03-05T11:40:47.760Z,3.25
2023-03-05T11:43:23.704Z,3.10
2023-03-05T11:46:03.298Z,2.65
2023-03-05T11:48:36.908Z,2.40
2023-03-05T11:51:36.313Z,2.40
2023-03-05T11:54:08.929Z,2.33
2023-03-05T11:56:37.632Z,2.63
2023-03-05T11:59:18.648Z,2.50
2023-03-05T12:01:50.137Z,2.50
2023-03-05T12:04:18.537Z,2.72
2023-03-05T12:07:03.040Z,3.05
2023-03-05T12:09:43.629Z,2.63
2023-03-05T12:12:40.003Z,2.97
2023-03-05T12:15:38.686Z,2.60
2023-03-05T12:18:17.073Z,2.78
2023-03-05T12:20:56.302Z,2.83
2023-03-05T12:23:23.410Z,2.70
2023-03-05T12:25:57.148Z,3.38
2023-03-05T12:28:36.121Z,3.67
2023-03-05T12:31:34.169Z,3.05
2023-03-05T12:34:36.407Z,2.95
2023-03-05T12:37:04.012Z,3.15
2023-03-05T12:39:48.054Z,3.83
2023-03-05T12:42:30.181Z,3.72
2023-03-05T12:45:12.652Z,3.25
2023-03-05T12:47:44.049Z,3.38
2023-03-05T12:50:29.350Z,3.20
2023-03-05T12:53:13.251Z,2.90
2023-03-05T12:55:59.124Z,2.97
2023-03-05T12:58:43.420Z,2.90
2023-03-05T13:02:16.786Z,2.70
2023-03-05T13:04:45.904Z,2.75
2023-03-05T13:07:17.228Z,2.72
2023-03-05T13:09:58.661Z,2.55
2023-03-05T13:12:28.839Z,2.88
2023-03-05T13:15:05.591Z,3.25
2023-03-05T13:17:41.081Z,2.80
2023-03-05T13:20:25.735Z,2.30
2023-03-05T13:23:25.266Z,2.60
2023-03-05T13:26:36.198Z,3.20
2023-03-05T13:29:16.492Z,2.67
2023-03-05T13:31:45.464Z,2.83
2023-03-05T13:34:29.821Z,2.65
2023-03-05T13:37:19.306Z,2.72
2023-03-05T13:39:58.746Z,2.45
2023-03-05T13:42:30.047Z,2.83
2023-03-05T13:44:59.177Z,2.83
2023-03-05T13:47:32.315Z,2.70
2023-03-05T13:50:02.045Z,2.55
2023-03-05T13:52:32.102Z,2.40
2023-03-05T13:55:00.438Z,3.22
2023-03-05T13:57:39.099Z,3.13
2023-03-05T14:00:26.211Z,60.10
2023-03-05T14:02:55.006Z,17.35
2023-03-05T14:05:22.273Z,18.85
2023-03-05T14:07:51.667Z,16.35
2023-03-05T14:10:30.696Z,8.32
2023-03-05T14:12:59.556Z,7.30
2023-03-05T14:15:29.577Z,5.05
2023-03-05T14:18:12.932Z,4.40
2023-03-05T14:20:58.539Z,2.80
2023-03-05T14:23:34.107Z,3.33
2023-03-05T14:26:24.097Z,2.78
2023-03-05T14:29:00.237Z,1.77
2023-03-05T14:31:29.277Z,2.47
2023-03-05T14:34:02.819Z,2.22
2023-03-05T14:36:30.977Z,2.17
2023-03-05T14:38:58.271Z,2.03
2023-03-05T14:41:42.302Z,1.80
2023-03-05T14:44:12.718Z,2.17
2023-03-05T14:46:39.939Z,2.20
2023-03-05T14:49:07.180Z,2.88
2023-03-05T14:51:43.000Z,2.00
2023-03-05T14:54:37.588Z,2.00
2023-03-05T14:57:05.518Z,2.20
2023-03-05T14:59:32.532Z,2.25
2023-03-05T15:01:59.310Z,2.05
2023-03-05T15:04:26.136Z,2.30
2023-03-05T15:06:53.470Z,2.40
2023-03-05T15:09:21.201Z,2.58
2023-03-05T15:11:49.943Z,2.40
2023-03-05T15:14:16.953Z,2.28
2023-03-05T15:16:45.563Z,2.28
2023-03-05T15:19:13.760Z,2.83
2023-03-05T15:21:41.312Z,2.08
2023-03-05T15:24:10.205Z,2.50
2023-03-05T15:26:39.033Z,2.60
2023-03-05T15:29:06.191Z,2.47
2023-03-05T15:31:38.573Z,3.05
2023-03-05T15:34:06.518Z,3.30
2023-03-05T15:36:33.891Z,2.83
2023-03-05T15:39:00.888Z,2.67
2023-03-05T15:41:27.896Z,3.03
2023-03-05T15:43:54.858Z,2.80
2023-03-05T15:46:21.811Z,2.95
2023-03-05T15:48:50.266Z,3.00
2023-03-05T15:51:17.884Z,2.78
2023-03-05T15:53:46.360Z,2.70
2023-03-05T15:56:19.530Z,3.45
2023-03-05T15:58:48.623Z,2.78
2023-03-05T16:01:15.723Z,3.13
2023-03-05T16:03:42.654Z,2.42
2023-03-05T16:06:10.175Z,3.92
2023-03-05T16:08:37.216Z,3.05
2023-03-05T16:11:06.070Z,2.88
2023-03-05T16:13:34.492Z,2.90
2023-03-05T16:16:04.528Z,3.08
2023-03-05T16:18:33.716Z,3.35
2023-03-05T16:21:00.786Z,3.13
2023-03-05T16:23:27.664Z,2.78
2023-03-05T16:25:54.461Z,2.38
2023-03-05T16:28:21.662Z,2.45
2023-03-05T16:30:58.280Z,3.10
2023-03-05T16:33:25.639Z,2.53
2023-03-05T16:36:13.787Z,2.80
2023-03-05T16:38:40.640Z,2.80
2023-03-05T16:41:08.883Z,2.90
2023-03-05T16:43:35.892Z,3.03
2023-03-05T16:46:02.690Z,2.95
2023-03-05T16:48:30.045Z,2.53
2023-03-05T16:50:57.852Z,2.45
2023-03-05T16:53:24.680Z,2.42
2023-03-05T16:55:51.449Z,2.83
2023-03-05T16:58:18.275Z,2.80
2023-03-05T17:00:45.443Z,2.70
2023-03-05T17:03:12.492Z,3.00
2023-03-05T17:05:39.332Z,2.78
2023-03-05T17:08:06.340Z,2.63
2023-03-05T17:10:33.554Z,2.78
2023-03-05T17:13:00.950Z,2.70
2023-03-05T17:15:27.994Z,2.25
2023-03-05T17:17:54.819Z,3.08
2023-03-05T17:20:21.908Z,3.00
2023-03-05T17:22:48.693Z,3.03
2023-03-05T17:25:16.777Z,2.88
2023-03-05T17:27:44.762Z,3.28
2023-03-05T17:30:12.989Z,2.95
2023-03-05T17:32:41.426Z,3.10
2023-03-05T17:35:18.023Z,3.03
2023-03-05T17:37:45.226Z,2.30
2023-03-05T17:40:15.997Z,2.90
2023-03-05T17:42:42.948Z,3.17
2023-03-05T17:45:10.330Z,3.53
2023-03-05T17:47:37.276Z,3.78
2023-03-05T17:50:06.045Z,3.95
2023-03-05T17:52:35.124Z,3.30
2023-03-05T17:55:02.613Z,3.63
2023-03-05T17:57:29.378Z,4.50
2023-03-05T17:59:56.187Z,3.90
2023-03-05T18:02:23.163Z,3.90
2023-03-05T18:04:52.134Z,4.72
2023-03-05T18:07:18.911Z,4.72
2023-03-05T18:09:45.905Z,4.72
2023-03-05T18:12:12.746Z,4.85
2023-03-05T18:14:39.625Z,4.15
2023-03-05T18:17:06.467Z,4.22
2023-03-05T18:19:33.242Z,3.58
2023-03-05T18:22:00.179Z,3.65
2023-03-05T18:24:27.044Z,3.90
2023-03-05T18:26:53.853Z,3.50
2023-03-05T18:29:20.670Z,2.88
2023-03-05T18:31:47.743Z,3.20
2023-03-05T18:34:14.595Z,3.50
2023-03-05T18:36:41.397Z,4.05
2023-03-05T18:39:11.482Z,3.40
2023-03-05T18:41:38.520Z,3.85
2023-03-05T18:44:07.215Z,4.15
2023-03-05T18:46:34.100Z,4.55
2023-03-05T18:49:01.086Z,3.85
2023-03-05T18:51:29.309Z,4.55
2023-03-05T18:53:57.448Z,5.22
2023-03-05T18:56:24.725Z,4.78
2023-03-05T18:58:51.882Z,4.95
2023-03-05T19:01:19.803Z,4.82
2023-03-05T19:03:48.974Z,4.85
2023-03-05T19:06:17.740Z,5.75
2023-03-05T19:08:45.487Z,6.00
2023-03-05T19:11:20.211Z,5.72
2023-03-05T19:13:49.088Z,6.13
2023-03-05T19:16:17.949Z,5.13
2023-03-05T19:19:13.237Z,5.15
2023-03-05T19:21:41.712Z,4.72
2023-03-05T19:24:08.659Z,4.30
2023-03-05T19:26:35.494Z,4.50
2023-03-05T19:29:02.400Z,3.65
2023-03-05T19:31:29.339Z,3.75
2023-03-05T19:33:56.275Z,3.70
2023-03-05T19:36:23.501Z,4.20
2023-03-05T19:38:51.639Z,4.53
2023-03-05T19:41:21.201Z,5.75
2023-03-05T19:43:50.448Z,4.78
2023-03-05T19:46:18.126Z,4.18
2023-03-05T19:48:45.724Z,3.85
2023-03-05T19:51:19.646Z,3.80
2023-03-05T19:53:47.763Z,3.70
2023-03-05T19:56:18.478Z,3.38
2023-03-05T19:58:48.150Z,3.72
2023-03-05T20:01:18.230Z,2.97
2023-03-05T20:03:47.143Z,3.63
2023-03-05T20:06:13.972Z,3.70
2023-03-05T20:08:41.468Z,3.63
2023-03-05T20:11:11.426Z,2.95
2023-03-05T20:13:39.058Z,3.60
2023-03-05T20:16:26.981Z,3.72
2023-03-05T20:18:55.559Z,3.45
2023-03-05T20:21:27.759Z,3.50
2023-03-05T20:23:56.757Z,3.63
2023-03-05T20:26:27.866Z,3.70
2023-03-05T20:28:56.628Z,3.65
2023-03-05T20:31:25.754Z,3.20
2023-03-05T20:33:52.714Z,3.75
2023-03-05T20:36:19.662Z,3.42
2023-03-05T20:38:46.679Z,3.83
2023-03-05T20:41:20.650Z,2.92
2023-03-05T20:43:49.332Z,3.38
2023-03-05T20:46:25.546Z,3.50
2023-03-05T20:48:59.151Z,3.30
2023-03-05T20:51:28.910Z,3.38
2023-03-05T20:54:03.310Z,3.53
2023-03-05T20:56:32.766Z,3.22
2023-03-05T20:59:03.815Z,3.05
2023-03-05T21:01:32.139Z,4.18
2023-03-05T21:03:59.231Z,2.95
2023-03-05T21:06:27.839Z,3.22
2023-03-05T21:08:54.722Z,3.70
2023-03-05T21:11:22.370Z,3.33
2023-03-05T21:13:49.279Z,3.35
2023-03-05T21:16:19.151Z,3.53
2023-03-05T21:18:46.421Z,3.72
2023-03-05T21:21:13.251Z,2.92
2023-03-05T21:23:40.283Z,3.30
2023-03-05T21:26:07.205Z,3.40
2023-03-05T21:28:34.162Z,3.35
2023-03-05T21:31:07.459Z,3.22
2023-03-05T21:33:35.179Z,3.80
2023-03-05T21:36:02.096Z,3.35
2023-03-05T21:38:30.899Z,3.70
2023-03-05T21:40:58.941Z,3.90
2023-03-05T21:43:27.478Z,4.15
2023-03-05T21:45:54.899Z,3.95
2023-03-05T21:48:23.404Z,3.92
2023-03-05T21:50:55.294Z,3.67
2023-03-05T21:53:22.811Z,3.28
2023-03-05T21:56:13.516Z,3.40
2023-03-05T21:58:40.365Z,3.65
2023-03-05T22:01:07.155Z,4.00
2023-03-05T22:03:33.981Z,4.18
2023-03-05T22:06:01.039Z,3.53
2023-03-05T22:08:29.864Z,3.50
2023-03-05T22:10:56.683Z,4.07
2023-03-05T22:13:23.672Z,3.85
2023-03-05T22:15:55.987Z,3.55
2023-03-05T22:18:29.197Z,3.85
2023-03-05T22:20:57.531Z,3.50
2023-03-05T22:23:29.208Z,3.05
2023-03-05T22:26:01.205Z,3.45
2023-03-05T22:28:29.478Z,3.63
2023-03-05T22:30:57.188Z,3.60
2023-03-05T22:33:24.157Z,3.25
2023-03-05T22:35:51.137Z,3.40
2023-03-05T22:38:18.425Z,3.30
2023-03-05T22:40:47.457Z,3.55
2023-03-05T22:43:14.990Z,3.38
2023-03-05T22:45:42.195Z,3.17
2023-03-05T22:48:12.568Z,4.00
2023-03-05T22:50:40.999Z,3.08
2023-03-05T22:53:08.275Z,3.35
2023-03-05T22:55:39.127Z,3.00
2023-03-05T22:58:05.952Z,3.67
2023-03-05T23:00:32.883Z,3.60
2023-03-05T23:02:59.740Z,3.53
2023-03-05T23:05:26.567Z,4.03
2023-03-05T23:07:53.428Z,3.78
2023-03-05T23:10:27.236Z,3.28
2023-03-05T23:12:56.273Z,3.42
2023-03-05T23:15:32.191Z,3.97
2023-03-05T23:17:59.502Z,3.20
2023-03-05T23:20:30.049Z,4.53
2023-03-05T23:22:57.548Z,2.97
2023-03-05T23:25:27.409Z,3.55
2023-03-05T23:27:54.795Z,3.65
2023-03-05T23:30:29.574Z,3.70
2023-03-05T23:33:09.771Z,3.88
2023-03-05T23:35:40.725Z,3.63
2023-03-05T23:38:12.504Z,3.63
2023-03-05T23:40:44.825Z,4.25
2023-03-05T23:43:12.595Z,4.15
2023-03-05T23:45:42.753Z,3.85
2023-03-05T23:48:09.972Z,3.83
2023-03-05T23:50:40.710Z,3.75
2023-03-05T23:53:08.010Z,3.25
2023-03-05T23:55:42.065Z,3.42
2023-03-05T23:58:09.412Z,3.65
